Time;durP1;ratioP1;P1;durP2;ratioP2;P2;SDS_P1;SDS_P2;PMS_P1;PMS_P2;Temp;Humidity;BMP_temperature;BMP_pressure;BME280_temperature;BME280_humidity;BME280_pressure;Samples;Min_cycle;Max_cycle;Signal;HPM_P1;HPM_P2
2021/09/23 00:02:24;;;;;;;;;15.25;11.75;;;;;23.77;43.08;102020.78;5022382;28;51801;-63
2021/09/23 00:04:49;;;;;;;;;13.25;13.25;;;;;23.79;43.56;102012.28;5023867;28;51119;-63
2021/09/23 00:07:15;;;;;;;;;14.75;11.00;;;;;23.78;43.35;102010.56;5031816;28;51194;-62
2021/09/23 00:09:40;;;;;;;;;13.50;12.75;;;;;23.78;43.03;102000.34;5034650;28;51059;-62
2021/09/23 00:12:06;;;;;;;;;14.75;13.25;;;;;23.78;43.10;101996.75;5025420;28;51103;-63
2021/09/23 00:14:31;;;;;;;;;18.75;15.00;;;;;23.78;43.51;101996.75;5026708;28;51093;-63
2021/09/23 00:16:56;;;;;;;;;13.25;11.50;;;;;23.77;43.22;101995.03;5025581;28;51139;-64
2021/09/23 00:19:24;;;;;;;;;12.50;12.00;;;;;23.77;43.12;101990.38;5016260;28;51343;-65
2021/09/23 00:21:49;;;;;;;;;15.00;11.50;;;;;23.77;43.39;101990.38;5034495;28;51221;-63
2021/09/23 00:24:15;;;;;;;;;11.50;9.75;;;;;23.78;43.64;101992.06;5028128;28;51063;-63
2021/09/23 00:26:40;;;;;;;;;11.25;9.75;;;;;23.77;43.47;101995.03;5025990;28;51072;-64
2021/09/23 00:29:05;;;;;;;;;11.75;11.75;;;;;23.77;43.42;101998.66;5021511;28;51266;-63
2021/09/23 00:31:32;;;;;;;;;10.25;9.75;;;;;23.76;43.22;101996.09;5018049;28;50991;-63
2021/09/23 00:33:57;;;;;;;;;13.25;10.00;;;;;23.76;43.37;101999.72;5027125;28;51244;-63
2021/09/23 00:36:23;;;;;;;;;13.00;12.50;;;;;23.76;43.41;101994.19;5035612;28;51135;-63
2021/09/23 00:38:48;;;;;;;;;12.75;10.00;;;;;23.76;43.57;101996.09;5024816;28;51331;-63
2021/09/23 00:41:14;;;;;;;;;9.25;9.25;;;;;23.76;43.24;101998.84;5018146;28;51038;-63
2021/09/23 00:43:39;;;;;;;;;13.75;11.50;;;;;23.75;43.65;101986.94;5022236;28;51113;-63
2021/09/23 00:46:04;;;;;;;;;14.75;12.00;;;;;23.75;43.58;101989.69;5022956;28;51031;-63
2021/09/23 00:48:30;;;;;;;;;10.00;10.00;;;;;23.75;43.34;101986.09;5032573;28;51254;-62
2021/09/23 00:50:58;;;;;;;;;12.75;9.25;;;;;23.75;43.03;101992.47;5026918;28;51788;-63
2021/09/23 00:53:24;;;;;;;;;10.00;10.00;;;;;23.75;43.21;101991.63;5021441;28;51088;-63
2021/09/23 00:55:50;;;;;;;;;12.25;11.50;;;;;23.72;43.28;101984.63;5034180;28;51162;-63
2021/09/23 00:58:16;;;;;;;;;9.50;9.00;;;;;23.73;43.15;101977.16;5023125;28;51284;-61
2021/09/23 01:00:42;;;;;;;;;12.25;11.00;;;;;23.71;43.33;101979.31;5020780;28;51705;-63
2021/09/23 01:03:11;;;;;;;;;12.50;11.00;;;;;23.71;43.73;101969.09;5029192;28;51427;-61
2021/09/23 01:05:36;;;;;;;;;14.00;10.50;;;;;23.71;43.22;101965.47;5021214;28;51131;-60
2021/09/23 01:08:02;;;;;;;;;12.75;9.75;;;;;23.72;43.45;101958.88;5029758;28;51123;-60
2021/09/23 01:10:27;;;;;;;;;11.50;9.75;;;;;23.71;43.90;101954.41;5023749;28;51699;-60
2021/09/23 01:12:52;;;;;;;;;11.25;9.50;;;;;23.70;43.47;101944.41;5023055;28;51076;-60
2021/09/23 01:15:18;;;;;;;;;9.75;8.25;;;;;23.69;43.54;101943.56;5028493;28;51277;-61
2021/09/23 01:17:44;;;;;;;;;10.50;9.25;;;;;23.69;43.59;101935.25;5026737;28;51044;-61
2021/09/23 01:20:12;;;;;;;;;10.75;10.00;;;;;23.69;43.54;101926.13;5033380;28;52068;-62
2021/09/23 01:22:37;;;;;;;;;12.00;9.25;;;;;23.69;43.96;101931.66;5035636;28;51303;-61
2021/09/23 01:25:05;;;;;;;;;8.75;8.75;;;;;23.70;43.68;101927.81;5026004;28;51629;-62
2021/09/23 01:27:32;;;;;;;;;7.25;6.50;;;;;23.70;43.63;101919.50;5030152;28;51121;-61
2021/09/23 01:29:57;;;;;;;;;10.75;9.25;;;;;23.70;43.45;101913.97;5025628;28;51177;-62
2021/09/23 01:32:22;;;;;;;;;10.50;8.50;;;;;23.71;43.55;101912.91;5033708;28;51219;-62
2021/09/23 01:34:48;;;;;;;;;14.25;10.00;;;;;23.70;43.78;101913.97;5027588;28;51146;-61
2021/09/23 01:37:13;;;;;;;;;10.75;10.00;;;;;23.68;43.49;101903.13;5022212;28;51151;-62
2021/09/23 01:39:39;;;;;;;;;13.75;9.75;;;;;23.68;43.49;101905.91;5036170;28;51300;-61
2021/09/23 01:42:05;;;;;;;;;9.25;9.25;;;;;23.68;43.67;101902.28;5026264;28;51116;-61
2021/09/23 01:44:31;;;;;;;;;11.50;10.50;;;;;23.68;43.68;101902.28;5033144;28;51132;-61
2021/09/23 01:46:56;;;;;;;;;8.50;8.50;;;;;23.68;43.57;101897.59;5035100;28;51397;-61
2021/09/23 01:49:22;;;;;;;;;6.25;6.25;;;;;23.67;43.58;101895.91;5034956;28;51793;-63
2021/09/23 01:51:47;;;;;;;;;10.25;8.00;;;;;23.67;43.84;101906.13;5017765;28;51348;-62
2021/09/23 01:54:13;;;;;;;;;7.25;4.75;;;;;23.67;43.78;101898.66;5027740;28;51049;-61
2021/09/23 01:56:39;;;;;;;;;8.25;8.25;;;;;23.67;43.36;101884.00;5032191;28;51482;-62
2021/09/23 01:59:05;;;;;;;;;10.00;10.00;;;;;23.66;43.63;101877.63;5016952;28;51046;-62
2021/09/23 02:01:30;;;;;;;;;8.25;7.75;;;;;23.65;43.60;101875.03;5029978;28;51047;-61
2021/09/23 02:03:55;;;;;;;;;12.75;9.25;;;;;23.65;43.70;101891.63;5026386;28;51424;-61
2021/09/23 02:06:21;;;;;;;;;9.00;8.00;;;;;23.65;43.37;101886.09;5018470;28;51305;-61
2021/09/23 02:08:46;;;;;;;;;7.25;7.25;;;;;23.64;43.55;101892.72;5023867;28;50962;-62
2021/09/23 02:11:12;;;;;;;;;13.25;10.75;;;;;23.63;44.05;101882.72;5016957;28;51014;-61
2021/09/23 02:13:38;;;;;;;;;11.25;9.25;;;;;23.63;43.53;101879.94;5022010;28;51230;-62
2021/09/23 02:16:03;;;;;;;;;9.50;9.50;;;;;23.63;43.57;101877.19;5022177;28;51418;-61
2021/09/23 02:18:29;;;;;;;;;8.25;8.25;;;;;23.62;44.11;101873.56;5020398;28;52035;-62
2021/09/23 02:20:54;;;;;;;;;10.00;8.00;;;;;23.63;43.50;101868.88;5021095;28;51170;-60
2021/09/23 02:23:20;;;;;;;;;9.75;9.00;;;;;23.63;43.44;101872.50;5018052;28;51031;-65
2021/09/23 02:25:45;;;;;;;;;9.75;8.00;;;;;23.64;43.96;101867.81;5030057;28;51769;-65
2021/09/23 02:28:10;;;;;;;;;9.25;8.50;;;;;23.65;43.72;101864.81;5026460;28;51759;-65
2021/09/23 02:30:36;;;;;;;;;7.50;6.50;;;;;23.65;43.63;101858.44;5021399;28;51167;-64
2021/09/23 02:33:02;;;;;;;;;8.25;8.25;;;;;23.64;43.80;101862.28;5017266;28;51418;-62
2021/09/23 02:35:27;;;;;;;;;7.25;6.00;;;;;23.63;44.03;101855.91;5020364;28;50978;-62
2021/09/23 02:37:53;;;;;;;;;10.25;8.00;;;;;23.63;44.08;101853.13;5023637;28;50992;-62
2021/09/23 02:40:18;;;;;;;;;6.75;6.00;;;;;23.63;44.03;101849.53;5033604;28;51086;-62
2021/09/23 02:42:43;;;;;;;;;10.00;9.25;;;;;23.61;43.58;101856.13;5035077;28;51211;-64
2021/09/23 02:45:11;;;;;;;;;7.50;7.00;;;;;23.61;43.91;101861.66;5023865;28;51326;-64
2021/09/23 02:47:37;;;;;;;;;8.25;7.50;;;;;23.60;43.95;101857.19;5028723;28;51169;-62
2021/09/23 02:50:04;;;;;;;;;7.25;6.75;;;;;23.61;43.59;101864.41;5025091;28;51201;-60
2021/09/23 02:52:29;;;;;;;;;6.75;6.25;;;;;23.61;43.77;101861.66;5035030;28;51116;-62
2021/09/23 02:54:54;;;;;;;;;9.00;8.00;;;;;23.61;43.66;101858.88;5031391;28;51245;-62
2021/09/23 02:57:20;;;;;;;;;9.00;6.50;;;;;23.61;44.21;101858.88;5020420;28;51788;-63
2021/09/23 02:59:45;;;;;;;;;8.00;7.00;;;;;23.61;43.84;101863.56;5034609;28;51162;-62
2021/09/23 03:02:11;;;;;;;;;9.00;7.00;;;;;23.60;43.99;101856.34;5033574;28;51028;-61
2021/09/23 03:04:36;;;;;;;;;8.25;8.25;;;;;23.60;43.59;101851.66;5026977;28;51121;-61
2021/09/23 03:07:01;;;;;;;;;6.75;6.50;;;;;23.60;44.25;101848.91;5016063;28;52519;-63
2021/09/23 03:09:27;;;;;;;;;8.25;6.25;;;;;23.60;44.03;101846.13;5015834;28;51123;-63
2021/09/23 03:11:52;;;;;;;;;11.25;7.75;;;;;23.61;43.90;101846.97;5016135;28;51313;-64
2021/09/23 03:14:17;;;;;;;;;7.75;7.75;;;;;23.60;43.82;101843.38;5024300;28;51028;-63
2021/09/23 03:16:43;;;;;;;;;10.00;7.25;;;;;23.59;43.87;101847.19;5015020;28;51047;-62
2021/09/23 03:19:08;;;;;;;;;10.00;8.00;;;;;23.59;44.13;101844.44;5030707;28;51068;-62
2021/09/23 03:21:34;;;;;;;;;10.00;8.25;;;;;23.59;43.84;101840.81;5024129;28;51172;-62
2021/09/23 03:23:59;;;;;;;;;8.75;6.75;;;;;23.58;43.90;101836.34;5020248;28;51308;-62
2021/09/23 03:26:25;;;;;;;;;8.00;6.50;;;;;23.59;43.73;101838.06;5034673;28;51031;-63
2021/09/23 03:28:50;;;;;;;;;7.00;7.00;;;;;23.59;43.65;101836.13;5024897;28;51073;-63
2021/09/23 03:31:16;;;;;;;;;7.00;7.00;;;;;23.59;44.05;101833.38;5035395;28;51074;-63
2021/09/23 03:33:41;;;;;;;;;6.75;5.50;;;;;23.59;43.86;101827.00;5031902;28;51336;-60
2021/09/23 03:36:06;;;;;;;;;7.25;6.25;;;;;23.57;43.71;101831.88;5028461;28;52012;-62
2021/09/23 03:38:32;;;;;;;;;6.00;6.00;;;;;23.56;44.28;101822.72;5034771;28;51137;-63
2021/09/23 03:40:57;;;;;;;;;6.50;6.50;;;;;23.57;43.73;101816.13;5032223;28;51136;-63
2021/09/23 03:43:23;;;;;;;;;5.50;5.50;;;;;23.57;44.21;101810.59;5028613;28;51331;-61
2021/09/23 03:45:49;;;;;;;;;7.00;7.00;;;;;23.58;44.28;101828.91;5026971;28;51723;-62
2021/09/23 03:48:16;;;;;;;;;6.75;6.50;;;;;23.58;43.73;101819.75;5019707;28;51430;-64
2021/09/23 03:50:41;;;;;;;;;10.00;10.00;;;;;23.59;43.24;101827.00;5027515;28;51055;-63
2021/09/23 03:53:07;;;;;;;;;11.25;10.75;;;;;23.58;42.92;101828.03;5015358;28;51019;-64
2021/09/23 03:55:32;;;;;;;;;16.75;9.75;;;;;23.54;42.33;101821.22;5027937;28;51911;-63
2021/09/23 03:57:58;;;;;;;;;11.25;11.25;;;;;23.53;42.14;101827.81;5026809;28;51029;-64
2021/09/23 04:00:25;;;;;;;;;13.50;12.50;;;;;23.49;42.17;101824.66;5030257;28;51232;-63
2021/09/23 04:02:51;;;;;;;;;9.75;9.75;;;;;23.47;42.07;101823.19;5037861;28;51057;-64
2021/09/23 04:05:16;;;;;;;;;15.25;15.25;;;;;23.45;42.31;101828.94;5030325;28;51820;-62
2021/09/23 04:07:42;;;;;;;;;13.75;12.75;;;;;23.43;42.17;101822.75;5037061;28;51824;-61
2021/09/23 04:10:08;;;;;;;;;14.75;12.75;;;;;23.39;41.78;101818.75;5037577;28;51259;-62
2021/09/23 04:12:34;;;;;;;;;11.75;11.75;;;;;23.37;42.10;101831.09;5038147;28;51060;-62
2021/09/23 04:15:00;;;;;;;;;12.25;10.50;;;;;23.35;42.00;101827.72;5024412;28;51115;-62
2021/09/23 04:17:25;;;;;;;;;16.00;13.50;;;;;23.32;42.12;101832.59;5018752;28;51175;-64
2021/09/23 04:19:51;;;;;;;;;15.50;12.25;;;;;23.30;42.53;101822.81;5024104;28;51342;-62
2021/09/23 04:22:17;;;;;;;;;14.00;12.25;;;;;23.27;42.22;101821.34;5028061;28;51116;-62
2021/09/23 04:24:43;;;;;;;;;15.50;13.50;;;;;23.26;41.91;101819.66;5028712;28;52487;-61
2021/09/23 04:27:09;;;;;;;;;16.75;16.00;;;;;23.23;41.66;101825.59;5026227;28;51100;-62
2021/09/23 04:29:34;;;;;;;;;14.75;14.75;;;;;23.21;42.37;101827.72;5019655;28;50884;-61
2021/09/23 04:32:00;;;;;;;;;13.75;12.00;;;;;23.20;41.95;101830.72;5018789;28;51012;-62
2021/09/23 04:34:25;;;;;;;;;13.75;13.75;;;;;23.18;42.44;101838.38;5032623;28;51755;-62
2021/09/23 04:36:51;;;;;;;;;16.25;14.25;;;;;23.16;42.28;101835.84;5026520;28;51179;-61
2021/09/23 04:39:17;;;;;;;;;15.50;14.25;;;;;23.13;41.71;101838.16;5027895;28;51428;-62
2021/09/23 04:41:43;;;;;;;;;12.50;11.75;;;;;23.11;42.49;101830.09;5037112;28;51238;-62
2021/09/23 04:44:08;;;;;;;;;15.00;15.00;;;;;23.10;41.75;101833.94;5036052;28;52485;-62
2021/09/23 04:46:34;;;;;;;;;14.50;14.00;;;;;23.08;41.73;101832.44;5032523;28;51280;-62
2021/09/23 04:49:00;;;;;;;;;15.25;13.50;;;;;23.06;42.02;101834.59;5028277;28;51113;-63
2021/09/23 04:51:27;;;;;;;;;14.00;14.00;;;;;23.04;42.15;101832.88;5018120;28;51250;-62
2021/09/23 04:53:53;;;;;;;;;12.75;12.75;;;;;23.02;42.36;101821.19;5021657;28;51058;-60
2021/09/23 04:56:18;;;;;;;;;13.50;13.50;;;;;23.02;41.88;101821.19;5018833;28;51362;-63
2021/09/23 04:58:44;;;;;;;;;15.50;11.75;;;;;23.02;42.19;101820.34;5019115;28;51446;-61
2021/09/23 05:01:10;;;;;;;;;14.00;11.25;;;;;23.02;42.36;101829.47;5030813;28;51208;-63
2021/09/23 05:03:35;;;;;;;;;13.50;12.75;;;;;23.02;42.70;101835.00;5031628;28;51107;-61
2021/09/23 05:06:01;;;;;;;;;14.25;11.50;;;;;23.02;42.38;101837.75;5025970;28;51186;-61
2021/09/23 05:08:26;;;;;;;;;12.00;10.25;;;;;23.03;42.76;101839.50;5017366;28;51172;-59
2021/09/23 05:10:51;;;;;;;;;12.75;11.00;;;;;23.03;42.69;101838.59;5018146;28;51100;-63
2021/09/23 05:13:17;;;;;;;;;10.00;9.50;;;;;23.06;42.75;101851.16;5017848;28;51164;-60
2021/09/23 05:15:43;;;;;;;;;12.50;11.75;;;;;23.06;43.29;101852.00;5023710;28;51036;-62
2021/09/23 05:18:10;;;;;;;;;11.75;11.25;;;;;23.08;42.92;101872.00;5018295;28;51433;-62
2021/09/23 05:20:35;;;;;;;;;12.00;10.00;;;;;23.10;42.85;101872.63;5018022;28;51267;-60
2021/09/23 05:23:01;;;;;;;;;18.00;12.25;;;;;23.10;42.68;101864.31;5025545;28;51371;-59
2021/09/23 05:25:27;;;;;;;;;16.00;11.75;;;;;;;;5025172;28;51110;-60
2021/09/23 05:27:53;;;;;;;;;16.75;13.25;;;;;23.08;42.29;101871.13;5025801;28;51223;-58
2021/09/23 05:30:18;;;;;;;;;11.00;11.00;;;;;23.08;42.53;101862.84;5016437;28;51446;-58
2021/09/23 05:32:44;;;;;;;;;17.25;14.00;;;;;23.07;42.22;101863.91;5028451;28;51821;-58
2021/09/23 05:35:10;;;;;;;;;15.75;12.25;;;;;23.06;42.47;101864.97;5035728;28;51023;-58
2021/09/23 05:37:35;;;;;;;;;11.00;10.50;;;;;23.04;42.37;101857.75;5027177;28;51143;-59
2021/09/23 05:40:00;;;;;;;;;10.00;10.00;;;;;23.03;44.09;101872.66;5030771;28;51137;-61
2021/09/23 05:42:26;;;;;;;;;12.00;10.75;;;;;23.04;44.32;101874.34;5026086;28;51210;-58
2021/09/23 05:44:51;;;;;;;;;11.25;11.25;;;;;23.04;45.31;101871.59;5019097;28;51077;-58
2021/09/23 05:47:17;;;;;;;;;11.00;9.00;;;;;23.06;45.42;101874.13;5020492;28;51305;-58
2021/09/23 05:49:43;;;;;;;;;9.00;9.00;;;;;23.07;44.47;101881.34;5020267;28;51099;-58
2021/09/23 05:52:08;;;;;;;;;12.25;10.25;;;;;23.09;44.84;101878.38;5034405;28;51072;-58
2021/09/23 05:54:34;;;;;;;;;12.00;10.25;;;;;23.10;44.93;101871.78;5027867;28;51271;-58
2021/09/23 05:56:59;;;;;;;;;13.75;11.50;;;;;23.11;44.52;101879.00;5030605;28;51222;-57
2021/09/23 05:59:26;;;;;;;;;13.00;10.25;;;;;23.11;44.55;101877.06;5026228;28;51326;-58
2021/09/23 06:01:54;;;;;;;;;10.75;8.75;;;;;23.11;44.48;101876.22;5023681;28;53218;-58
2021/09/23 06:04:20;;;;;;;;;10.50;10.50;;;;;23.13;45.15;101882.38;5030565;28;51073;-58
2021/09/23 06:06:45;;;;;;;;;12.75;9.50;;;;;23.14;45.09;101884.13;5027724;28;51127;-60
2021/09/23 06:09:11;;;;;;;;;9.25;9.25;;;;;23.14;45.42;101887.72;5025990;28;51349;-59
2021/09/23 06:11:39;;;;;;;;;12.00;11.50;;;;;23.15;45.25;101892.19;5024316;28;51864;-58
2021/09/23 06:14:04;;;;;;;;;9.00;8.00;;;;;23.16;45.35;101896.66;5027002;28;51794;-58
2021/09/23 06:16:30;;;;;;;;;12.50;8.75;;;;;23.17;44.96;101895.56;5024702;28;51169;-60
2021/09/23 06:18:55;;;;;;;;;13.75;9.50;;;;;23.18;45.33;101897.28;5019206;28;51141;-59
2021/09/23 06:21:20;;;;;;;;;7.50;7.25;;;;;23.19;45.61;101889.81;5016525;28;52183;-59
2021/09/23 06:23:46;;;;;;;;;13.00;10.00;;;;;23.20;45.59;101895.13;5028960;28;51272;-55
2021/09/23 06:26:11;;;;;;;;;8.00;6.75;;;;;23.21;45.55;101896.84;5035360;28;51193;-56
2021/09/23 06:28:36;;;;;;;;;9.75;8.50;;;;;23.22;45.05;101901.28;5032226;28;51135;-60
2021/09/23 06:31:02;;;;;;;;;13.00;11.00;;;;;23.23;45.33;101904.91;5026894;28;51395;-58
2021/09/23 06:33:28;;;;;;;;;11.50;10.75;;;;;23.24;45.07;101895.53;5023068;28;50957;-59
2021/09/23 06:35:54;;;;;;;;;13.75;10.50;;;;;23.26;45.35;101893.44;5030385;28;51351;-60
2021/09/23 06:38:20;;;;;;;;;14.25;9.75;;;;;23.26;44.82;101904.50;5022956;28;51328;-59
2021/09/23 06:40:45;;;;;;;;;15.75;10.75;;;;;23.27;44.82;101907.03;5031274;28;51504;-58
2021/09/23 06:43:11;;;;;;;;;13.00;11.00;;;;;23.27;44.97;101909.81;5028853;28;50926;-59
2021/09/23 06:45:36;;;;;;;;;15.25;12.00;;;;;23.28;44.85;101914.25;5026723;28;51511;-61
2021/09/23 06:48:02;;;;;;;;;12.25;10.75;;;;;23.29;45.34;101910.44;5023868;28;51262;-58
2021/09/23 06:50:27;;;;;;;;;12.25;11.00;;;;;23.29;45.40;101913.19;5023756;28;51616;-61
2021/09/23 06:52:53;;;;;;;;;13.00;11.00;;;;;23.30;44.86;101908.53;5031775;28;51582;-57
2021/09/23 06:55:18;;;;;;;;;14.75;11.75;;;;;23.30;45.44;101912.13;5031229;28;51208;-59
2021/09/23 06:57:44;;;;;;;;;15.25;12.00;;;;;23.32;45.36;101914.69;5034455;28;51347;-59
2021/09/23 07:00:10;;;;;;;;;14.00;12.00;;;;;23.33;44.70;101922.75;5029157;28;51391;-60
2021/09/23 07:02:35;;;;;;;;;14.00;13.00;;;;;23.34;44.69;101912.53;5019284;28;51649;-62
2021/09/23 07:05:01;;;;;;;;;12.50;12.50;;;;;23.37;44.88;101911.28;5022606;28;51279;-59
2021/09/23 07:07:26;;;;;;;;;11.00;11.00;;;;;23.36;44.88;101902.13;5021942;28;51131;-59
2021/09/23 07:09:51;;;;;;;;;16.75;13.50;;;;;23.37;44.51;101900.22;5032336;28;51192;-59
2021/09/23 07:12:17;;;;;;;;;14.75;14.50;;;;;23.37;44.83;101906.59;5032689;28;51181;-60
2021/09/23 07:14:42;;;;;;;;;11.75;11.00;;;;;23.36;44.88;101899.38;5029735;28;51205;-59
2021/09/23 07:17:08;;;;;;;;;11.00;11.00;;;;;23.35;44.12;101900.44;5033179;28;50990;-59
2021/09/23 07:19:33;;;;;;;;;13.00;11.75;;;;;23.35;44.58;101903.22;5023520;28;51258;-58
2021/09/23 07:21:59;;;;;;;;;11.50;11.25;;;;;23.34;44.38;101901.47;5021677;28;51103;-59
2021/09/23 07:24:25;;;;;;;;;11.50;10.25;;;;;23.35;44.69;101903.22;5026050;28;51722;-60
2021/09/23 07:26:51;;;;;;;;;13.25;11.50;;;;;23.35;44.49;101896.84;5040720;28;51102;-60
2021/09/23 07:29:17;;;;;;;;;15.75;13.00;;;;;23.32;44.08;101898.94;5019715;28;52052;-59
2021/09/23 07:31:44;;;;;;;;;16.50;12.00;;;;;23.32;44.02;101901.69;5023546;28;51705;-63
2021/09/23 07:34:10;;;;;;;;;14.00;10.75;;;;;23.31;44.41;101897.25;5024956;28;51382;-58
2021/09/23 07:36:36;;;;;;;;;10.75;10.75;;;;;23.31;44.40;101886.19;5014818;28;51183;-61
2021/09/23 07:39:04;;;;;;;;;12.75;12.50;;;;;23.32;44.41;101881.50;5013730;28;51934;-59
2021/09/23 07:41:29;;;;;;;;;13.50;7.75;;;;;23.33;43.90;101884.03;5027778;28;50942;-60
2021/09/23 07:43:55;;;;;;;;;14.75;12.00;;;;;23.33;43.90;101875.75;5031625;28;51616;-59
2021/09/23 07:46:20;;;;;;;;;12.50;10.50;;;;;23.35;43.73;101877.47;5028797;28;51150;-59
2021/09/23 07:48:47;;;;;;;;;14.00;9.50;;;;;23.37;44.26;101889.16;5016678;28;51131;-59
2021/09/23 07:51:13;;;;;;;;;11.25;10.00;;;;;23.37;44.02;101876.19;5028016;28;51459;-60
2021/09/23 07:53:39;;;;;;;;;10.75;10.00;;;;;23.40;44.13;101875.75;5013852;28;50969;-60
2021/09/23 07:56:04;;;;;;;;;13.50;11.75;;;;;23.42;43.92;101879.13;5025201;28;51097;-59
2021/09/23 07:58:29;;;;;;;;;11.50;9.25;;;;;23.46;43.84;101880.41;5028395;28;51247;-59
2021/09/23 08:00:55;;;;;;;;;12.50;9.75;;;;;23.49;43.55;101879.13;5030952;28;51190;-60
2021/09/23 08:03:20;;;;;;;;;15.25;10.50;;;;;23.51;43.95;101875.06;5014476;28;51219;-60
2021/09/23 08:05:45;;;;;;;;;13.25;10.25;;;;;23.57;43.97;101879.75;5017186;28;52200;-59
2021/09/23 08:08:11;;;;;;;;;10.75;9.50;;;;;23.63;43.74;101880.78;5013871;28;51703;-59
2021/09/23 08:10:37;;;;;;;;;8.75;8.75;;;;;23.67;43.55;101872.94;5017764;28;51219;-60
2021/09/23 08:13:02;;;;;;;;;11.00;10.00;;;;;23.71;43.77;101880.56;5029740;28;51249;-61
2021/09/23 08:15:30;;;;;;;;;9.75;9.25;;;;;23.75;43.51;101886.50;5017997;28;51466;-59
2021/09/23 08:17:56;;;;;;;;;8.00;7.75;;;;;23.77;43.84;101885.22;5021508;28;52816;-62
2021/09/23 08:20:22;;;;;;;;;14.50;12.00;;;;;23.81;44.45;101891.16;5015617;28;51536;-59
2021/09/23 08:22:47;;;;;;;;;10.00;9.25;;;;;23.84;43.89;101890.72;5018022;28;51117;-59
2021/09/23 08:25:12;;;;;;;;;13.25;10.25;;;;;23.87;43.75;101882.00;5021827;28;51187;-58
2021/09/23 08:27:38;;;;;;;;;11.25;9.00;;;;;23.90;43.69;101876.00;5031882;28;54349;-58
2021/09/23 08:30:05;;;;;;;;;13.25;9.00;;;;;23.93;43.74;101872.78;5026857;28;51451;-60
2021/09/23 08:32:30;;;;;;;;;9.25;8.75;;;;;23.94;43.82;101868.09;5022882;28;51407;-60
2021/09/23 08:34:56;;;;;;;;;11.00;9.25;;;;;23.96;43.65;101865.97;5026482;28;52792;-59
2021/09/23 08:37:21;;;;;;;;;12.50;9.25;;;;;23.97;43.76;101873.19;5027559;28;52033;-60
2021/09/23 08:39:47;;;;;;;;;12.25;9.25;;;;;23.98;43.82;101875.75;5028278;28;51019;-59
2021/09/23 08:42:14;;;;;;;;;7.75;7.00;;;;;24.00;43.62;101878.31;5031232;28;51292;-59
2021/09/23 08:44:40;;;;;;;;;8.50;7.50;;;;;24.02;43.41;101881.69;5021957;28;51238;-59
2021/09/23 08:47:06;;;;;;;;;9.50;9.50;;;;;24.05;43.32;101882.09;5028761;28;51761;-60
2021/09/23 08:49:32;;;;;;;;;8.25;8.25;;;;;24.10;43.38;101881.44;5030524;28;51509;-59
2021/09/23 08:51:57;;;;;;;;;11.75;10.25;;;;;24.13;43.14;101878.22;5035591;28;51282;-60
2021/09/23 08:54:23;;;;;;;;;12.00;9.50;;;;;24.16;43.16;101886.91;5039828;28;51208;-60
2021/09/23 08:56:48;;;;;;;;;10.50;9.00;;;;;24.20;43.28;101884.56;5027099;28;52560;-58
2021/09/23 08:59:13;;;;;;;;;10.25;8.00;;;;;24.23;42.88;101884.13;5021907;28;51119;-59
2021/09/23 09:01:47;;;;;;;;;8.75;8.75;;;;;24.28;43.10;101886.19;5032771;28;51082;-59
2021/09/23 09:04:13;;;;;;;;;8.50;7.00;;;;;24.31;42.58;101874.75;5029072;28;51013;-58
2021/09/23 09:07:00;;;;;;;;;11.25;9.75;;;;;24.35;42.73;101885.13;5031116;28;51436;-58
2021/09/23 09:09:25;;;;;;;;;11.00;8.00;;;;;24.40;42.52;101890.03;5021209;28;51439;-58
2021/09/23 09:11:55;;;;;;;;;9.50;7.75;;;;;24.42;42.56;101894.25;5027752;28;51170;-58
2021/09/23 09:14:30;;;;;;;;;8.00;7.75;;;;;24.48;42.84;101895.25;5024957;28;51578;-57
2021/09/23 09:17:01;;;;;;;;;8.75;8.25;;;;;24.52;42.50;101891.00;5028228;28;51834;-58
2021/09/23 09:19:49;;;;;;;;;7.75;7.75;;;;;24.57;42.40;101885.59;5027257;28;50926;-58
2021/09/23 09:22:21;;;;;;;;;9.25;8.00;;;;;24.60;42.40;101890.72;5032064;28;51191;-58
2021/09/23 09:24:57;;;;;;;;;7.00;7.00;;;;;24.63;42.15;101881.94;5029016;28;51497;-58
2021/09/23 09:27:37;;;;;;;;;9.00;8.00;;;;;24.68;42.24;101884.88;5027359;28;52675;-58
2021/09/23 09:30:12;;;;;;;;;10.00;9.50;;;;;24.72;42.25;101888.91;5027438;28;51487;-58
2021/09/23 09:32:45;;;;;;;;;11.75;11.00;;;;;24.74;41.92;101875.66;5029168;28;51132;-58
2021/09/23 09:35:14;;;;;;;;;8.00;7.00;;;;;24.78;42.06;101884.38;5031068;28;51133;-59
2021/09/23 09:37:42;;;;;;;;;11.50;9.75;;;;;24.81;42.13;101892.25;5022774;28;51182;-58
2021/09/23 09:40:14;;;;;;;;;6.75;6.75;;;;;24.84;41.94;101890.94;5024763;28;51449;-58
2021/09/23 09:42:45;;;;;;;;;7.00;6.25;;;;;24.88;41.76;101883.88;5020681;28;51437;-58
2021/09/23 09:45:28;;;;;;;;;10.75;8.50;;;;;24.91;41.84;101881.50;5026804;28;51308;-59
2021/09/23 09:47:55;;;;;;;;;6.25;5.50;;;;;24.93;41.81;101873.81;5026529;28;51196;-57
2021/09/23 09:50:25;;;;;;;;;8.00;6.25;;;;;24.96;41.65;101878.03;5030380;28;51199;-58
2021/09/23 09:52:57;;;;;;;;;6.75;6.75;;;;;24.99;41.48;101872.88;5024356;28;51958;-58
2021/09/23 09:55:43;;;;;;;;;10.00;10.00;;;;;25.02;41.63;101863.31;5021480;28;52259;-58
2021/09/23 09:58:10;;;;;;;;;9.50;8.75;;;;;25.04;41.79;101863.94;5025902;28;51877;-58
2021/09/23 10:00:37;;;;;;;;;10.00;8.50;;;;;25.07;41.60;101868.16;5025160;28;51165;-58
2021/09/23 10:03:03;;;;;;;;;9.50;8.25;;;;;25.09;41.51;101872.38;5024991;28;52456;-59
2021/09/23 10:05:29;;;;;;;;;7.50;7.50;;;;;25.11;41.45;101866.59;5029208;28;51445;-59
2021/09/23 10:07:57;;;;;;;;;8.00;8.00;;;;;25.12;41.52;101866.41;5022609;28;51114;-58
2021/09/23 10:10:28;;;;;;;;;8.75;7.25;;;;;25.14;41.54;101861.47;5025484;28;51470;-58
2021/09/23 10:12:59;;;;;;;;;9.75;8.25;;;;;25.16;41.09;101856.53;5024717;28;51286;-58
2021/09/23 10:15:25;;;;;;;;;5.50;5.00;;;;;25.18;41.29;101856.31;5028098;28;51360;-58
2021/09/23 10:18:00;;;;;;;;;6.50;6.50;;;;;25.20;41.23;101851.38;5024827;28;51182;-57
2021/09/23 10:20:28;;;;;;;;;6.50;6.00;;;;;25.21;41.29;101855.84;5030946;28;51242;-57
2021/09/23 10:22:54;;;;;;;;;6.00;6.00;;;;;25.22;41.25;101852.88;5030094;28;51350;-58
2021/09/23 10:25:26;;;;;;;;;6.75;6.75;;;;;25.22;41.10;101851.97;5022667;28;51304;-59
2021/09/23 10:27:59;;;;;;;;;9.00;6.25;;;;;25.24;41.18;101847.09;5030285;28;52564;-58
2021/09/23 10:30:38;;;;;;;;;4.75;4.00;;;;;25.24;41.41;101845.16;5026014;28;51162;-58
2021/09/23 10:33:05;;;;;;;;;6.50;6.50;;;;;25.25;41.42;101844.06;5018580;28;51651;-58
2021/09/23 10:35:31;;;;;;;;;8.25;8.25;;;;;25.27;41.24;101847.47;5022941;28;51375;-58
2021/09/23 10:38:02;;;;;;;;;6.00;5.25;;;;;25.28;41.37;101843.59;5029076;28;52020;-57
2021/09/23 10:40:29;;;;;;;;;6.00;6.00;;;;;25.29;41.22;101841.69;5035016;28;50974;-59
2021/09/23 10:43:01;;;;;;;;;15.50;13.25;;;;;25.32;41.29;101838.44;5026745;28;51190;-59
2021/09/23 10:45:28;;;;;;;;;15.00;13.00;;;;;25.35;41.29;101839.91;5023696;28;51175;-58
2021/09/23 10:48:00;;;;;;;;;18.25;16.75;;;;;25.36;41.41;101836.91;5016714;28;50982;-59
2021/09/23 10:50:34;;;;;;;;;17.25;16.75;;;;;25.38;41.46;101828.34;5015848;28;51536;-58
2021/09/23 10:53:01;;;;;;;;;14.75;14.75;;;;;25.39;41.26;101828.13;5016937;28;51184;-58
2021/09/23 10:55:31;;;;;;;;;21.00;19.25;;;;;25.41;41.32;101822.34;5027777;28;51052;-58
2021/09/23 10:57:58;;;;;;;;;15.50;14.75;;;;;25.41;41.26;101817.63;5021937;28;52637;-58
2021/09/23 11:00:33;;;;;;;;;16.50;15.00;;;;;25.42;40.95;101816.53;5025685;28;51337;-59
2021/09/23 11:03:06;;;;;;;;;14.75;14.25;;;;;25.42;40.93;101815.72;5018541;28;51120;-59
2021/09/23 11:05:31;;;;;;;;;13.75;12.00;;;;;25.41;41.17;101803.75;5023643;28;51350;-59
2021/09/23 11:08:01;;;;;;;;;15.25;14.25;;;;;25.41;40.99;101806.53;5034822;28;52744;-58
2021/09/23 11:10:27;;;;;;;;;13.25;12.75;;;;;25.41;40.88;101803.75;5038788;28;51165;-59
2021/09/23 11:12:58;;;;;;;;;14.75;12.25;;;;;25.42;40.80;101790.75;5046948;28;51214;-58
2021/09/23 11:15:30;;;;;;;;;13.00;10.25;;;;;25.41;40.73;101798.22;5055739;28;51322;-58